sensor_id;sensor_type;location;lat;lon;timestamp;temperature;humidity
5492;DHT22;2768;53.540;10.224;2022-07-21T00:04:05;24.60;1.00
5492;DHT22;2768;53.540;10.224;2022-07-21T00:09:58;24.50;1.00
5492;DHT22;2768;53.540;10.224;2022-07-21T00:15:53;24.40;1.00
5492;DHT22;2768;53.540;10.224;2022-07-21T00:21:46;24.40;1.00
5492;DHT22;2768;53.540;10.224;2022-07-21T00:27:39;24.40;1.00
5492;DHT22;2768;53.540;10.224;2022-07-21T00:33:33;24.30;1.00
5492;DHT22;2768;53.540;10.224;2022-07-21T00:39:27;24.10;1.00
5492;DHT22;2768;53.540;10.224;2022-07-21T00:45:20;24.00;1.00
5492;DHT22;2768;53.540;10.224;2022-07-21T00:51:17;24.10;1.00
5492;DHT22;2768;53.540;10.224;2022-07-21T00:57:13;24.00;1.00
5492;DHT22;2768;53.540;10.224;2022-07-21T01:03:12;23.90;1.00
5492;DHT22;2768;53.540;10.224;2022-07-21T01:09:09;23.70;1.00
5492;DHT22;2768;53.540;10.224;2022-07-21T01:15:07;23.70;1.00
5492;DHT22;2768;53.540;10.224;2022-07-21T01:21:14;23.80;1.00
5492;DHT22;2768;53.540;10.224;2022-07-21T01:27:10;23.70;1.00
5492;DHT22;2768;53.540;10.224;2022-07-21T01:33:10;23.60;1.00
5492;DHT22;2768;53.540;10.224;2022-07-21T01:39:06;23.60;1.00
5492;DHT22;2768;53.540;10.224;2022-07-21T01:45:17;23.50;1.00
5492;DHT22;2768;53.540;10.224;2022-07-21T01:51:10;23.30;1.00
5492;DHT22;2768;53.540;10.224;2022-07-21T01:57:05;22.10;1.00
5492;DHT22;2768;53.540;10.224;2022-07-21T02:02:58;21.80;1.00
5492;DHT22;2768;53.540;10.224;2022-07-21T02:08:54;21.80;1.00
5492;DHT22;2768;53.540;10.224;2022-07-21T02:14:50;22.20;1.00
5492;DHT22;2768;53.540;10.224;2022-07-21T02:20:43;22.00;1.00
5492;DHT22;2768;53.540;10.224;2022-07-21T02:26:39;22.10;1.00
5492;DHT22;2768;53.540;10.224;2022-07-21T02:32:33;22.60;1.00
5492;DHT22;2768;53.540;10.224;2022-07-21T02:38:26;22.40;1.00
5492;DHT22;2768;53.540;10.224;2022-07-21T02:44:19;22.50;1.00
5492;DHT22;2768;53.540;10.224;2022-07-21T02:50:29;22.70;1.00
5492;DHT22;2768;53.540;10.224;2022-07-21T02:56:22;22.70;1.00
5492;DHT22;2768;53.540;10.224;2022-07-21T03:02:16;22.50;1.00
5492;DHT22;2768;53.540;10.224;2022-07-21T03:08:10;22.50;1.00
5492;DHT22;2768;53.540;10.224;2022-07-21T03:14:03;22.30;9.30
5492;DHT22;2768;53.540;10.224;2022-07-21T03:20:03;22.10;24.70
5492;DHT22;2768;53.540;10.224;2022-07-21T03:26:03;22.20;41.00
5492;DHT22;2768;53.540;10.224;2022-07-21T03:31:57;22.30;50.80
5492;DHT22;2768;53.540;10.224;2022-07-21T03:37:52;22.30;58.10
5492;DHT22;2768;53.540;10.224;2022-07-21T03:43:47;21.60;91.10
5492;DHT22;2768;53.540;10.224;2022-07-21T03:49:40;21.70;99.90
5492;DHT22;2768;53.540;10.224;2022-07-21T03:55:34;21.60;99.90
5492;DHT22;2768;53.540;10.224;2022-07-21T04:01:31;21.20;99.90
5492;DHT22;2768;53.540;10.224;2022-07-21T04:07:24;21.30;99.90
5492;DHT22;2768;53.540;10.224;2022-07-21T04:13:20;21.30;99.90
5492;DHT22;2768;53.540;10.224;2022-07-21T04:19:18;21.20;99.90
5492;DHT22;2768;53.540;10.224;2022-07-21T04:25:12;21.40;99.90
5492;DHT22;2768;53.540;10.224;2022-07-21T04:31:05;21.40;99.90
5492;DHT22;2768;53.540;10.224;2022-07-21T04:37:00;21.60;99.90
5492;DHT22;2768;53.540;10.224;2022-07-21T04:42:53;21.60;99.90
5492;DHT22;2768;53.540;10.224;2022-07-21T04:48:46;21.50;99.90
5492;DHT22;2768;53.540;10.224;2022-07-21T04:54:41;21.70;99.90
5492;DHT22;2768;53.540;10.224;2022-07-21T05:00:35;22.00;99.90
5492;DHT22;2768;53.540;10.224;2022-07-21T05:06:28;22.10;99.90
5492;DHT22;2768;53.540;10.224;2022-07-21T05:12:25;22.10;99.90
5492;DHT22;2768;53.540;10.224;2022-07-21T05:18:18;22.10;99.90
5492;DHT22;2768;53.540;10.224;2022-07-21T05:24:11;22.00;99.90
5492;DHT22;2768;53.540;10.224;2022-07-21T05:30:10;22.20;99.90
5492;DHT22;2768;53.540;10.224;2022-07-21T05:36:05;22.30;99.00
5492;DHT22;2768;53.540;10.224;2022-07-21T05:42:00;22.30;93.70
5492;DHT22;2768;53.540;10.224;2022-07-21T05:47:57;22.30;87.00
5492;DHT22;2768;53.540;10.224;2022-07-21T05:53:50;22.30;76.80
5492;DHT22;2768;53.540;10.224;2022-07-21T05:59:45;22.40;70.10
5492;DHT22;2768;53.540;10.224;2022-07-21T06:05:40;22.50;63.30
5492;DHT22;2768;53.540;10.224;2022-07-21T06:11:36;22.60;54.80
5492;DHT22;2768;53.540;10.224;2022-07-21T06:17:29;22.50;60.70
5492;DHT22;2768;53.540;10.224;2022-07-21T06:23:26;22.40;68.60
5492;DHT22;2768;53.540;10.224;2022-07-21T06:29:19;22.40;71.50
5492;DHT22;2768;53.540;10.224;2022-07-21T06:35:12;22.40;74.40
5492;DHT22;2768;53.540;10.224;2022-07-21T06:41:07;22.50;83.00
5492;DHT22;2768;53.540;10.224;2022-07-21T06:47:03;22.50;96.40
5492;DHT22;2768;53.540;10.224;2022-07-21T06:52:57;22.50;99.90
5492;DHT22;2768;53.540;10.224;2022-07-21T06:58:51;22.50;99.90
5492;DHT22;2768;53.540;10.224;2022-07-21T07:04:45;22.30;99.90
5492;DHT22;2768;53.540;10.224;2022-07-21T07:10:38;22.30;99.90
5492;DHT22;2768;53.540;10.224;2022-07-21T07:16:37;22.50;99.90
5492;DHT22;2768;53.540;10.224;2022-07-21T07:22:33;22.30;99.90
5492;DHT22;2768;53.540;10.224;2022-07-21T07:28:29;22.30;99.90
5492;DHT22;2768;53.540;10.224;2022-07-21T07:34:23;22.10;99.90
5492;DHT22;2768;53.540;10.224;2022-07-21T07:40:18;21.80;99.90
5492;DHT22;2768;53.540;10.224;2022-07-21T07:46:15;21.60;99.90
5492;DHT22;2768;53.540;10.224;2022-07-21T07:52:13;21.60;99.90
5492;DHT22;2768;53.540;10.224;2022-07-21T07:58:09;21.50;99.90
5492;DHT22;2768;53.540;10.224;2022-07-21T08:04:05;21.50;99.90
5492;DHT22;2768;53.540;10.224;2022-07-21T08:10:09;21.50;99.90
5492;DHT22;2768;53.540;10.224;2022-07-21T08:16:23;21.40;99.90
5492;DHT22;2768;53.540;10.224;2022-07-21T08:22:19;21.50;99.90
5492;DHT22;2768;53.540;10.224;2022-07-21T08:28:22;21.40;99.90
5492;DHT22;2768;53.540;10.224;2022-07-21T08:34:15;21.20;99.90
5492;DHT22;2768;53.540;10.224;2022-07-21T08:40:10;21.30;99.90
5492;DHT22;2768;53.540;10.224;2022-07-21T08:46:07;21.60;99.90
5492;DHT22;2768;53.540;10.224;2022-07-21T08:52:01;21.80;99.90
5492;DHT22;2768;53.540;10.224;2022-07-21T08:57:55;22.00;99.90
5492;DHT22;2768;53.540;10.224;2022-07-21T09:03:50;21.80;99.90
5492;DHT22;2768;53.540;10.224;2022-07-21T09:09:54;21.70;99.90
5492;DHT22;2768;53.540;10.224;2022-07-21T09:15:50;21.60;99.90
5492;DHT22;2768;53.540;10.224;2022-07-21T09:21:45;21.70;99.90
5492;DHT22;2768;53.540;10.224;2022-07-21T09:27:38;21.80;99.90
5492;DHT22;2768;53.540;10.224;2022-07-21T09:33:36;21.70;99.90
5492;DHT22;2768;53.540;10.224;2022-07-21T09:39:50;21.80;99.90
5492;DHT22;2768;53.540;10.224;2022-07-21T09:45:43;22.10;99.90
5492;DHT22;2768;53.540;10.224;2022-07-21T09:51:37;22.00;99.90
5492;DHT22;2768;53.540;10.224;2022-07-21T09:57:35;22.20;99.90
5492;DHT22;2768;53.540;10.224;2022-07-21T10:03:30;22.50;99.90
5492;DHT22;2768;53.540;10.224;2022-07-21T10:09:23;22.40;99.90
5492;DHT22;2768;53.540;10.224;2022-07-21T10:15:19;22.40;99.90
5492;DHT22;2768;53.540;10.224;2022-07-21T10:21:21;22.40;99.90
5492;DHT22;2768;53.540;10.224;2022-07-21T10:27:18;22.70;99.90
5492;DHT22;2768;53.540;10.224;2022-07-21T10:33:55;22.70;99.90
5492;DHT22;2768;53.540;10.224;2022-07-21T10:39:49;22.80;99.90
5492;DHT22;2768;53.540;10.224;2022-07-21T10:45:43;22.80;99.90
5492;DHT22;2768;53.540;10.224;2022-07-21T10:51:45;22.80;99.90
5492;DHT22;2768;53.540;10.224;2022-07-21T10:57:39;22.90;99.90
5492;DHT22;2768;53.540;10.224;2022-07-21T11:03:42;23.10;99.90
5492;DHT22;2768;53.540;10.224;2022-07-21T11:10:14;23.10;99.90
5492;DHT22;2768;53.540;10.224;2022-07-21T11:16:07;23.30;99.90
5492;DHT22;2768;53.540;10.224;2022-07-21T11:22:02;23.50;99.90
5492;DHT22;2768;53.540;10.224;2022-07-21T11:27:58;23.40;99.90
5492;DHT22;2768;53.540;10.224;2022-07-21T11:33:51;23.40;99.90
5492;DHT22;2768;53.540;10.224;2022-07-21T11:39:47;23.40;99.90
5492;DHT22;2768;53.540;10.224;2022-07-21T11:45:51;23.40;99.90
5492;DHT22;2768;53.540;10.224;2022-07-21T11:51:49;23.50;99.90
5492;DHT22;2768;53.540;10.224;2022-07-21T11:57:49;23.60;99.90
5492;DHT22;2768;53.540;10.224;2022-07-21T12:03:50;23.80;99.90
5492;DHT22;2768;53.540;10.224;2022-07-21T12:09:53;24.20;99.90
5492;DHT22;2768;53.540;10.224;2022-07-21T12:15:49;24.00;99.90
5492;DHT22;2768;53.540;10.224;2022-07-21T12:21:49;24.00;99.90
5492;DHT22;2768;53.540;10.224;2022-07-21T12:27:44;24.40;99.90
5492;DHT22;2768;53.540;10.224;2022-07-21T12:33:45;24.60;99.90
5492;DHT22;2768;53.540;10.224;2022-07-21T12:40:04;25.30;98.20
5492;DHT22;2768;53.540;10.224;2022-07-21T12:45:59;25.40;94.20
5492;DHT22;2768;53.540;10.224;2022-07-21T12:52:01;25.50;94.40
5492;DHT22;2768;53.540;10.224;2022-07-21T12:58:01;25.20;91.30
5492;DHT22;2768;53.540;10.224;2022-07-21T13:03:55;25.20;75.00
5492;DHT22;2768;53.540;10.224;2022-07-21T13:09:48;25.20;72.50
5492;DHT22;2768;53.540;10.224;2022-07-21T13:15:45;25.30;72.40
5492;DHT22;2768;53.540;10.224;2022-07-21T13:21:45;25.90;59.10
5492;DHT22;2768;53.540;10.224;2022-07-21T13:27:39;25.90;41.40
5492;DHT22;2768;53.540;10.224;2022-07-21T13:33:40;25.50;49.20
5492;DHT22;2768;53.540;10.224;2022-07-21T13:39:38;25.40;41.50
5492;DHT22;2768;53.540;10.224;2022-07-21T13:45:51;25.30;47.90
5492;DHT22;2768;53.540;10.224;2022-07-21T13:51:46;25.10;43.20
5492;DHT22;2768;53.540;10.224;2022-07-21T13:57:42;25.60;46.20
5492;DHT22;2768;53.540;10.224;2022-07-21T14:03:37;26.30;28.20
5492;DHT22;2768;53.540;10.224;2022-07-21T14:09:34;26.20;21.10
5492;DHT22;2768;53.540;10.224;2022-07-21T14:15:28;26.90;11.30
5492;DHT22;2768;53.540;10.224;2022-07-21T14:21:21;26.80;10.50
5492;DHT22;2768;53.540;10.224;2022-07-21T14:27:18;26.40;1.40
5492;DHT22;2768;53.540;10.224;2022-07-21T14:33:14;26.10;5.30
5492;DHT22;2768;53.540;10.224;2022-07-21T14:39:09;26.30;1.40
5492;DHT22;2768;53.540;10.224;2022-07-21T14:45:05;26.30;1.00
5492;DHT22;2768;53.540;10.224;2022-07-21T14:51:14;25.70;1.00
5492;DHT22;2768;53.540;10.224;2022-07-21T14:57:07;25.40;4.30
5492;DHT22;2768;53.540;10.224;2022-07-21T15:03:09;25.60;4.90
5492;DHT22;2768;53.540;10.224;2022-07-21T15:09:03;25.50;9.50
5492;DHT22;2768;53.540;10.224;2022-07-21T15:14:56;25.40;13.20
5492;DHT22;2768;53.540;10.224;2022-07-21T15:20:51;25.40;14.00
5492;DHT22;2768;53.540;10.224;2022-07-21T15:26:45;24.90;17.50
5492;DHT22;2768;53.540;10.224;2022-07-21T15:32:45;20.20;99.90
5492;DHT22;2768;53.540;10.224;2022-07-21T15:38:39;19.80;99.90
5492;DHT22;2768;53.540;10.224;2022-07-21T15:44:37;20.90;99.90
5492;DHT22;2768;53.540;10.224;2022-07-21T15:50:36;21.20;99.90
5492;DHT22;2768;53.540;10.224;2022-07-21T15:56:39;21.20;1.00
5492;DHT22;2768;53.540;10.224;2022-07-21T16:02:32;21.40;1.00
5492;DHT22;2768;53.540;10.224;2022-07-21T16:08:28;21.60;1.00
5492;DHT22;2768;53.540;10.224;2022-07-21T16:14:24;21.90;1.00
5492;DHT22;2768;53.540;10.224;2022-07-21T16:20:20;21.60;1.00
5492;DHT22;2768;53.540;10.224;2022-07-21T16:26:13;22.00;1.00
5492;DHT22;2768;53.540;10.224;2022-07-21T16:32:08;21.90;1.00
5492;DHT22;2768;53.540;10.224;2022-07-21T16:38:01;22.20;1.00
5492;DHT22;2768;53.540;10.224;2022-07-21T16:43:57;22.30;1.00
5492;DHT22;2768;53.540;10.224;2022-07-21T16:49:57;22.10;1.00
5492;DHT22;2768;53.540;10.224;2022-07-21T16:55:52;22.30;1.00
5492;DHT22;2768;53.540;10.224;2022-07-21T17:01:53;22.50;1.00
5492;DHT22;2768;53.540;10.224;2022-07-21T17:07:47;22.50;1.00
5492;DHT22;2768;53.540;10.224;2022-07-21T17:13:42;22.30;99.90
5492;DHT22;2768;53.540;10.224;2022-07-21T17:19:35;22.40;99.90
5492;DHT22;2768;53.540;10.224;2022-07-21T17:25:29;22.50;99.90
5492;DHT22;2768;53.540;10.224;2022-07-21T17:31:22;22.50;99.90
5492;DHT22;2768;53.540;10.224;2022-07-21T17:37:25;22.30;99.90
5492;DHT22;2768;53.540;10.224;2022-07-21T17:43:19;22.30;99.90
5492;DHT22;2768;53.540;10.224;2022-07-21T17:49:20;22.50;99.90
5492;DHT22;2768;53.540;10.224;2022-07-21T17:55:15;22.50;99.90
5492;DHT22;2768;53.540;10.224;2022-07-21T18:01:44;22.70;99.90
5492;DHT22;2768;53.540;10.224;2022-07-21T18:07:40;22.80;99.90
5492;DHT22;2768;53.540;10.224;2022-07-21T18:13:34;22.80;99.90
5492;DHT22;2768;53.540;10.224;2022-07-21T18:19:31;22.90;99.90
5492;DHT22;2768;53.540;10.224;2022-07-21T18:25:33;22.80;99.90
5492;DHT22;2768;53.540;10.224;2022-07-21T18:31:26;22.90;99.90
5492;DHT22;2768;53.540;10.224;2022-07-21T18:37:21;22.90;1.00
5492;DHT22;2768;53.540;10.224;2022-07-21T18:43:14;22.90;1.00
5492;DHT22;2768;53.540;10.224;2022-07-21T18:49:07;22.70;99.90
5492;DHT22;2768;53.540;10.224;2022-07-21T18:55:06;22.50;99.90
5492;DHT22;2768;53.540;10.224;2022-07-21T19:00:59;22.40;99.90
5492;DHT22;2768;53.540;10.224;2022-07-21T19:06:54;22.40;99.90
5492;DHT22;2768;53.540;10.224;2022-07-21T19:13:09;22.30;99.90
5492;DHT22;2768;53.540;10.224;2022-07-21T19:19:11;22.20;99.90
5492;DHT22;2768;53.540;10.224;2022-07-21T19:25:07;21.70;99.90
5492;DHT22;2768;53.540;10.224;2022-07-21T19:31:03;21.30;99.90
5492;DHT22;2768;53.540;10.224;2022-07-21T19:36:59;21.80;99.90
5492;DHT22;2768;53.540;10.224;2022-07-21T19:42:54;21.80;99.90
5492;DHT22;2768;53.540;10.224;2022-07-21T19:48:50;21.90;99.90
5492;DHT22;2768;53.540;10.224;2022-07-21T19:54:43;21.70;99.90
5492;DHT22;2768;53.540;10.224;2022-07-21T20:00:37;21.50;99.90
5492;DHT22;2768;53.540;10.224;2022-07-21T20:06:31;21.30;99.90
5492;DHT22;2768;53.540;10.224;2022-07-21T20:12:25;21.20;99.90
5492;DHT22;2768;53.540;10.224;2022-07-21T20:18:18;21.20;99.90
5492;DHT22;2768;53.540;10.224;2022-07-21T20:24:15;21.00;99.90
5492;DHT22;2768;53.540;10.224;2022-07-21T20:30:11;21.00;99.90
5492;DHT22;2768;53.540;10.224;2022-07-21T20:36:05;21.00;99.90
5492;DHT22;2768;53.540;10.224;2022-07-21T20:41:59;20.50;99.90
5492;DHT22;2768;53.540;10.224;2022-07-21T20:47:52;20.50;99.90
5492;DHT22;2768;53.540;10.224;2022-07-21T20:53:45;20.70;99.90
5492;DHT22;2768;53.540;10.224;2022-07-21T20:59:39;20.70;99.90
5492;DHT22;2768;53.540;10.224;2022-07-21T21:05:32;20.40;99.90
5492;DHT22;2768;53.540;10.224;2022-07-21T21:11:28;20.50;99.90
5492;DHT22;2768;53.540;10.224;2022-07-21T21:17:32;20.40;99.90
5492;DHT22;2768;53.540;10.224;2022-07-21T21:23:33;20.50;99.90
5492;DHT22;2768;53.540;10.224;2022-07-21T21:29:33;20.20;99.90
5492;DHT22;2768;53.540;10.224;2022-07-21T21:35:30;20.40;99.90
5492;DHT22;2768;53.540;10.224;2022-07-21T21:41:23;20.40;99.90
5492;DHT22;2768;53.540;10.224;2022-07-21T21:47:16;20.30;99.90
5492;DHT22;2768;53.540;10.224;2022-07-21T21:53:13;20.00;99.90
5492;DHT22;2768;53.540;10.224;2022-07-21T21:59:09;20.30;99.90
5492;DHT22;2768;53.540;10.224;2022-07-21T22:05:02;20.50;99.90
5492;DHT22;2768;53.540;10.224;2022-07-21T22:10:57;20.40;99.90
5492;DHT22;2768;53.540;10.224;2022-07-21T22:16:50;20.30;99.90
5492;DHT22;2768;53.540;10.224;2022-07-21T22:22:45;20.00;99.90
5492;DHT22;2768;53.540;10.224;2022-07-21T22:28:44;20.10;99.90
5492;DHT22;2768;53.540;10.224;2022-07-21T22:34:37;19.90;99.90
5492;DHT22;2768;53.540;10.224;2022-07-21T22:40:33;19.70;1.00
5492;DHT22;2768;53.540;10.224;2022-07-21T22:46:27;19.90;1.00
5492;DHT22;2768;53.540;10.224;2022-07-21T22:52:27;20.00;1.00
5492;DHT22;2768;53.540;10.224;2022-07-21T22:58:20;19.90;1.00
5492;DHT22;2768;53.540;10.224;2022-07-21T23:04:19;20.00;1.00
5492;DHT22;2768;53.540;10.224;2022-07-21T23:10:13;20.00;1.00
5492;DHT22;2768;53.540;10.224;2022-07-21T23:16:06;20.00;1.00
5492;DHT22;2768;53.540;10.224;2022-07-21T23:22:01;20.00;1.00
5492;DHT22;2768;53.540;10.224;2022-07-21T23:27:54;19.80;1.00
5492;DHT22;2768;53.540;10.224;2022-07-21T23:33:49;19.90;1.00
5492;DHT22;2768;53.540;10.224;2022-07-21T23:39:54;20.10;1.00
5492;DHT22;2768;53.540;10.224;2022-07-21T23:45:50;20.20;1.00
5492;DHT22;2768;53.540;10.224;2022-07-21T23:51:43;20.30;1.00
5492;DHT22;2768;53.540;10.224;2022-07-21T23:57:37;20.20;1.00
